sensor_id;sensor_type;location;lat;lon;timestamp;pressure;altitude;pressure_sealevel;temperature;humidity
29215;BME280;16252;49.816;7.964;2022-11-15T00:00:33;99687.69;;;10.75;72.93
29215;BME280;16252;49.816;7.964;2022-11-15T00:02:59;99668.88;;;10.65;72.89
29215;BME280;16252;49.816;7.964;2022-11-15T00:05:24;99685.13;;;10.73;72.87
29215;BME280;16252;49.816;7.964;2022-11-15T00:07:50;99676.25;;;10.73;72.92
29215;BME280;16252;49.816;7.964;2022-11-15T00:10:15;99669.06;;;10.73;72.93
29215;BME280;16252;49.816;7.964;2022-11-15T00:12:40;99664.59;;;10.74;72.83
29215;BME280;16252;49.816;7.964;2022-11-15T00:15:06;99651.72;;;10.68;72.89
29215;BME280;16252;49.816;7.964;2022-11-15T00:17:32;99653.28;;;10.70;72.83
29215;BME280;16252;49.816;7.964;2022-11-15T00:19:57;99655.69;;;10.73;72.96
29215;BME280;16252;49.816;7.964;2022-11-15T00:22:23;99627.53;;;10.58;72.94
29215;BME280;16252;49.816;7.964;2022-11-15T00:24:48;99647.19;;;10.68;72.93
29215;BME280;16252;49.816;7.964;2022-11-15T00:27:13;99652.06;;;10.74;72.94
29215;BME280;16252;49.816;7.964;2022-11-15T00:29:39;99664.66;;;10.83;73.09
29215;BME280;16252;49.816;7.964;2022-11-15T00:32:11;99620.75;;;10.54;72.81
29215;BME280;16252;49.816;7.964;2022-11-15T00:34:37;99653.16;;;10.72;72.83
29215;BME280;16252;49.816;7.964;2022-11-15T00:37:02;99653.91;;;10.74;73.03
29215;BME280;16252;49.816;7.964;2022-11-15T00:39:27;99642.72;;;10.69;73.03
29215;BME280;16252;49.816;7.964;2022-11-15T00:41:53;99625.84;;;10.57;73.38
29215;BME280;16252;49.816;7.964;2022-11-15T00:44:18;99660.81;;;10.76;73.12
29215;BME280;16252;49.816;7.964;2022-11-15T00:46:43;99662.41;;;10.79;73.20
29215;BME280;16252;49.816;7.964;2022-11-15T00:49:08;99658.63;;;10.81;72.97
29215;BME280;16252;49.816;7.964;2022-11-15T00:51:34;99667.22;;;10.85;73.24
29215;BME280;16252;49.816;7.964;2022-11-15T00:53:59;99657.50;;;10.84;73.17
29215;BME280;16252;49.816;7.964;2022-11-15T00:56:24;99659.66;;;10.90;73.31
29215;BME280;16252;49.816;7.964;2022-11-15T00:58:50;99651.06;;;10.87;73.19
29215;BME280;16252;49.816;7.964;2022-11-15T01:01:15;99647.13;;;10.91;73.11
29215;BME280;16252;49.816;7.964;2022-11-15T01:03:41;99650.88;;;10.99;73.29
29215;BME280;16252;49.816;7.964;2022-11-15T01:06:07;99613.50;;;10.77;73.17
29215;BME280;16252;49.816;7.964;2022-11-15T01:08:34;99641.66;;;10.92;73.15
29215;BME280;16252;49.816;7.964;2022-11-15T01:11:04;99623.75;;;10.93;73.23
29215;BME280;16252;49.816;7.964;2022-11-15T01:13:32;99624.03;;;10.90;73.19
29215;BME280;16252;49.816;7.964;2022-11-15T01:15:57;99628.38;;;10.91;73.14
29215;BME280;16252;49.816;7.964;2022-11-15T01:18:23;99615.53;;;10.84;73.14
29215;BME280;16252;49.816;7.964;2022-11-15T01:20:48;99623.50;;;10.96;73.09
29215;BME280;16252;49.816;7.964;2022-11-15T01:23:14;99623.50;;;10.96;73.14
29215;BME280;16252;49.816;7.964;2022-11-15T01:25:39;99629.59;;;10.98;73.11
29215;BME280;16252;49.816;7.964;2022-11-15T01:28:04;99645.72;;;11.07;73.26
29215;BME280;16252;49.816;7.964;2022-11-15T01:30:30;99610.38;;;10.93;73.15
29215;BME280;16252;49.816;7.964;2022-11-15T01:32:55;99635.13;;;11.06;73.03
29215;BME280;16252;49.816;7.964;2022-11-15T01:35:20;99616.34;;;10.96;73.17
29215;BME280;16252;49.816;7.964;2022-11-15T01:37:46;99628.81;;;11.07;73.13
29215;BME280;16252;49.816;7.964;2022-11-15T01:40:11;99606.72;;;10.94;73.30
29215;BME280;16252;49.816;7.964;2022-11-15T01:42:36;99602.47;;;10.91;73.23
29215;BME280;16252;49.816;7.964;2022-11-15T01:45:02;99592.19;;;10.87;73.15
29215;BME280;16252;49.816;7.964;2022-11-15T01:47:31;99612.41;;;11.00;73.21
29215;BME280;16252;49.816;7.964;2022-11-15T01:50:05;99622.75;;;11.05;73.30
29215;BME280;16252;49.816;7.964;2022-11-15T01:52:33;99599.19;;;10.99;73.33
29215;BME280;16252;49.816;7.964;2022-11-15T01:57:30;99615.81;;;11.02;73.25
29215;BME280;16252;49.816;7.964;2022-11-15T01:59:57;99614.97;;;11.02;73.32
29215;BME280;16252;49.816;7.964;2022-11-15T02:02:23;99612.16;;;11.03;73.14
29215;BME280;16252;49.816;7.964;2022-11-15T02:04:48;99600.97;;;10.98;73.20
29215;BME280;16252;49.816;7.964;2022-11-15T02:07:18;99607.97;;;11.11;73.27
29215;BME280;16252;49.816;7.964;2022-11-15T02:09:45;99608.13;;;11.09;73.25
29215;BME280;16252;49.816;7.964;2022-11-15T02:12:17;99572.78;;;10.94;73.26
29215;BME280;16252;49.816;7.964;2022-11-15T02:14:47;99585.06;;;10.97;73.15
29215;BME280;16252;49.816;7.964;2022-11-15T02:17:21;99602.88;;;11.28;72.57
29215;BME280;16252;49.816;7.964;2022-11-15T02:23:04;99597.72;;;11.16;72.92
29215;BME280;16252;49.816;7.964;2022-11-15T02:25:39;99594.97;;;11.06;72.95
29215;BME280;16252;49.816;7.964;2022-11-15T02:28:35;99589.22;;;11.11;73.02
29215;BME280;16252;49.816;7.964;2022-11-15T02:31:13;99588.78;;;11.05;72.82
29215;BME280;16252;49.816;7.964;2022-11-15T02:39:27;99535.63;;;10.80;73.02
29215;BME280;16252;49.816;7.964;2022-11-15T02:42:00;99559.91;;;10.88;73.06
29215;BME280;16252;49.816;7.964;2022-11-15T02:44:43;99552.72;;;10.89;73.11
29215;BME280;16252;49.816;7.964;2022-11-15T02:47:13;99564.41;;;10.88;72.88
29215;BME280;16252;49.816;7.964;2022-11-15T02:49:50;99509.72;;;10.59;72.90
29215;BME280;16252;49.816;7.964;2022-11-15T02:52:17;99556.19;;;10.79;72.76
29215;BME280;16252;49.816;7.964;2022-11-15T02:54:53;99527.91;;;10.66;72.96
29215;BME280;16252;49.816;7.964;2022-11-15T02:57:22;99555.84;;;10.73;72.83
29215;BME280;16252;49.816;7.964;2022-11-15T03:00:08;99556.00;;;10.71;72.97
29215;BME280;16252;49.816;7.964;2022-11-15T03:05:41;99530.78;;;10.53;72.81
29215;BME280;16252;49.816;7.964;2022-11-15T03:08:22;99542.81;;;10.58;72.91
29215;BME280;16252;49.816;7.964;2022-11-15T03:13:27;99544.41;;;10.50;73.52
29215;BME280;16252;49.816;7.964;2022-11-15T03:16:08;99539.06;;;10.50;73.56
29215;BME280;16252;49.816;7.964;2022-11-15T03:18:52;99523.53;;;10.44;73.76
29215;BME280;16252;49.816;7.964;2022-11-15T03:21:21;99534.69;;;10.49;73.71
29215;BME280;16252;49.816;7.964;2022-11-15T03:23:48;99536.25;;;10.51;73.67
29215;BME280;16252;49.816;7.964;2022-11-15T03:26:16;99538.56;;;10.56;73.93
29215;BME280;16252;49.816;7.964;2022-11-15T03:28:54;99539.03;;;10.61;73.97
29215;BME280;16252;49.816;7.964;2022-11-15T03:31:22;99524.94;;;10.48;73.83
29215;BME280;16252;49.816;7.964;2022-11-15T03:34:11;99532.22;;;10.57;73.89
29215;BME280;16252;49.816;7.964;2022-11-15T03:36:37;99534.16;;;10.55;73.71
29215;BME280;16252;49.816;7.964;2022-11-15T03:39:06;99532.69;;;10.62;73.87
29215;BME280;16252;49.816;7.964;2022-11-15T03:41:43;99545.50;;;10.79;73.89
29215;BME280;16252;49.816;7.964;2022-11-15T03:44:14;99543.94;;;10.77;73.77
29215;BME280;16252;49.816;7.964;2022-11-15T03:47:08;99536.84;;;10.76;73.93
29215;BME280;16252;49.816;7.964;2022-11-15T03:49:37;99548.75;;;10.83;73.84
29215;BME280;16252;49.816;7.964;2022-11-15T03:52:04;99503.44;;;10.49;73.75
29215;BME280;16252;49.816;7.964;2022-11-15T03:54:30;99526.50;;;10.61;73.96
29215;BME280;16252;49.816;7.964;2022-11-15T03:56:55;99552.53;;;10.80;73.57
29215;BME280;16252;49.816;7.964;2022-11-15T03:59:20;99548.16;;;10.79;74.03
29215;BME280;16252;49.816;7.964;2022-11-15T04:01:46;99530.94;;;10.72;73.86
29215;BME280;16252;49.816;7.964;2022-11-15T04:04:11;99541.56;;;10.83;74.23
29215;BME280;16252;49.816;7.964;2022-11-15T04:06:37;99531.38;;;10.77;73.93
29215;BME280;16252;49.816;7.964;2022-11-15T04:09:02;99542.44;;;10.84;73.85
29215;BME280;16252;49.816;7.964;2022-11-15T04:11:28;99540.00;;;10.81;73.68
29215;BME280;16252;49.816;7.964;2022-11-15T04:13:53;99558.81;;;10.91;73.78
29215;BME280;16252;49.816;7.964;2022-11-15T04:16:18;99556.13;;;10.91;74.06
29215;BME280;16252;49.816;7.964;2022-11-15T04:18:44;99550.91;;;10.89;73.81
29215;BME280;16252;49.816;7.964;2022-11-15T04:21:09;99558.41;;;10.95;74.00
29215;BME280;16252;49.816;7.964;2022-11-15T04:23:53;99541.91;;;10.90;73.89
29215;BME280;16252;49.816;7.964;2022-11-15T04:26:21;99564.56;;;11.07;73.84
29215;BME280;16252;49.816;7.964;2022-11-15T04:28:47;99542.47;;;10.94;73.88
29215;BME280;16252;49.816;7.964;2022-11-15T04:31:31;99507.09;;;10.90;73.73
29215;BME280;16252;49.816;7.964;2022-11-15T04:33:56;99531.00;;;11.03;73.81
29215;BME280;16252;49.816;7.964;2022-11-15T04:36:21;99529.59;;;11.09;73.85
29215;BME280;16252;49.816;7.964;2022-11-15T04:39:06;99538.09;;;11.14;73.78
29215;BME280;16252;49.816;7.964;2022-11-15T04:41:31;99517.50;;;11.04;73.97
29215;BME280;16252;49.816;7.964;2022-11-15T04:43:57;99529.94;;;11.15;73.89
29215;BME280;16252;49.816;7.964;2022-11-15T04:46:22;99519.13;;;11.17;73.70
29215;BME280;16252;49.816;7.964;2022-11-15T04:48:48;99499.47;;;11.06;73.67
29215;BME280;16252;49.816;7.964;2022-11-15T04:51:14;99507.69;;;11.15;73.74
29215;BME280;16252;49.816;7.964;2022-11-15T04:53:39;99494.81;;;11.09;73.55
29215;BME280;16252;49.816;7.964;2022-11-15T04:56:04;99474.59;;;10.95;73.61
29215;BME280;16252;49.816;7.964;2022-11-15T04:58:30;99490.13;;;11.01;73.59
29215;BME280;16252;49.816;7.964;2022-11-15T05:00:55;99491.28;;;11.08;73.49
29215;BME280;16252;49.816;7.964;2022-11-15T05:03:20;99503.44;;;11.12;73.48
29215;BME280;16252;49.816;7.964;2022-11-15T05:06:05;99490.19;;;11.11;73.48
29215;BME280;16252;49.816;7.964;2022-11-15T05:08:30;99481.63;;;10.96;73.42
29215;BME280;16252;49.816;7.964;2022-11-15T05:10:55;99495.47;;;11.01;73.44
29215;BME280;16252;49.816;7.964;2022-11-15T05:13:20;99454.50;;;10.79;73.49
29215;BME280;16252;49.816;7.964;2022-11-15T05:15:46;99491.84;;;11.02;73.42
29215;BME280;16252;49.816;7.964;2022-11-15T05:18:12;99472.97;;;10.82;73.45
29215;BME280;16252;49.816;7.964;2022-11-15T05:20:38;99496.13;;;10.93;73.62
29215;BME280;16252;49.816;7.964;2022-11-15T05:23:03;99515.31;;;10.98;73.63
29215;BME280;16252;49.816;7.964;2022-11-15T05:25:29;99486.94;;;10.86;73.74
29215;BME280;16252;49.816;7.964;2022-11-15T05:27:54;99520.81;;;10.97;73.81
29215;BME280;16252;49.816;7.964;2022-11-15T05:30:19;99512.06;;;10.95;74.04
29215;BME280;16252;49.816;7.964;2022-11-15T05:32:45;99500.75;;;10.91;74.11
29215;BME280;16252;49.816;7.964;2022-11-15T05:35:57;99485.13;;;10.87;73.99
29215;BME280;16252;49.816;7.964;2022-11-15T05:38:02;99482.94;;;10.80;74.09
29215;BME280;16252;49.816;7.964;2022-11-15T05:40:28;99509.28;;;10.96;74.11
29215;BME280;16252;49.816;7.964;2022-11-15T05:42:54;99491.78;;;10.92;74.07
29215;BME280;16252;49.816;7.964;2022-11-15T05:45:20;99491.78;;;10.92;74.21
29215;BME280;16252;49.816;7.964;2022-11-15T05:47:46;99507.91;;;11.02;74.08
29215;BME280;16252;49.816;7.964;2022-11-15T05:50:14;99496.84;;;10.95;74.07
29215;BME280;16252;49.816;7.964;2022-11-15T05:52:41;99474.09;;;10.80;74.09
29215;BME280;16252;49.816;7.964;2022-11-15T05:55:08;99506.91;;;11.03;74.00
29215;BME280;16252;49.816;7.964;2022-11-15T05:57:33;99481.84;;;10.83;73.82
29215;BME280;16252;49.816;7.964;2022-11-15T05:59:59;99489.22;;;10.91;73.74
29215;BME280;16252;49.816;7.964;2022-11-15T06:02:24;99486.81;;;10.88;73.51
29215;BME280;16252;49.816;7.964;2022-11-15T06:04:49;99482.28;;;10.88;73.53
29215;BME280;16252;49.816;7.964;2022-11-15T06:07:15;99464.50;;;10.77;73.60
29215;BME280;16252;49.816;7.964;2022-11-15T06:09:40;99486.63;;;10.79;73.40
29215;BME280;16252;49.816;7.964;2022-11-15T06:12:06;99500.38;;;10.75;73.53
29215;BME280;16252;49.816;7.964;2022-11-15T06:14:31;99509.25;;;10.75;73.53
29215;BME280;16252;49.816;7.964;2022-11-15T06:16:56;99502.72;;;10.68;73.58
29215;BME280;16252;49.816;7.964;2022-11-15T06:19:22;99507.50;;;10.65;73.25
29215;BME280;16252;49.816;7.964;2022-11-15T06:21:47;99485.09;;;10.45;73.37
29215;BME280;16252;49.816;7.964;2022-11-15T06:24:12;99482.31;;;10.46;73.47
29215;BME280;16252;49.816;7.964;2022-11-15T06:26:37;99503.06;;;10.54;73.53
29215;BME280;16252;49.816;7.964;2022-11-15T06:29:03;99488.75;;;10.44;73.54
29215;BME280;16252;49.816;7.964;2022-11-15T06:31:29;99517.38;;;10.53;73.66
29215;BME280;16252;49.816;7.964;2022-11-15T06:33:55;99523.63;;;10.53;73.81
29215;BME280;16252;49.816;7.964;2022-11-15T06:36:20;99509.06;;;10.46;73.96
29215;BME280;16252;49.816;7.964;2022-11-15T06:38:46;99511.25;;;10.41;74.18
29215;BME280;16252;49.816;7.964;2022-11-15T06:41:12;99517.28;;;10.54;74.22
29215;BME280;16252;49.816;7.964;2022-11-15T06:43:38;99503.81;;;10.45;74.22
29215;BME280;16252;49.816;7.964;2022-11-15T06:46:05;99511.34;;;10.51;74.43
29215;BME280;16252;49.816;7.964;2022-11-15T06:48:32;99512.91;;;10.53;74.70
29215;BME280;16252;49.816;7.964;2022-11-15T06:50:59;99535.34;;;10.62;74.48
29215;BME280;16252;49.816;7.964;2022-11-15T06:53:25;99517.38;;;10.53;74.45
29215;BME280;16252;49.816;7.964;2022-11-15T06:55:51;99512.38;;;10.59;74.53
29215;BME280;16252;49.816;7.964;2022-11-15T06:58:17;99521.44;;;10.68;74.53
29215;BME280;16252;49.816;7.964;2022-11-15T07:00:43;99508.72;;;10.60;74.42
29215;BME280;16252;49.816;7.964;2022-11-15T07:03:08;99514.69;;;10.64;74.59
29215;BME280;16252;49.816;7.964;2022-11-15T07:05:34;99513.19;;;10.71;74.49
29215;BME280;16252;49.816;7.964;2022-11-15T07:08:00;99489.31;;;10.58;74.49
29215;BME280;16252;49.816;7.964;2022-11-15T07:10:25;99519.00;;;10.76;74.27
29215;BME280;16252;49.816;7.964;2022-11-15T07:12:52;99484.06;;;10.57;74.45
29215;BME280;16252;49.816;7.964;2022-11-15T07:15:20;99527.06;;;10.86;74.37
29215;BME280;16252;49.816;7.964;2022-11-15T07:17:46;99511.94;;;10.75;74.34
29215;BME280;16252;49.816;7.964;2022-11-15T07:20:12;99527.34;;;10.83;74.31
29215;BME280;16252;49.816;7.964;2022-11-15T07:22:39;99521.88;;;10.84;74.26
29215;BME280;16252;49.816;7.964;2022-11-15T07:25:04;99517.75;;;10.80;74.49
29215;BME280;16252;49.816;7.964;2022-11-15T07:27:29;99512.00;;;10.85;74.31
29215;BME280;16252;49.816;7.964;2022-11-15T07:29:54;99501.22;;;10.75;74.31
29215;BME280;16252;49.816;7.964;2022-11-15T07:32:20;99515.06;;;10.80;74.35
29215;BME280;16252;49.816;7.964;2022-11-15T07:34:45;99516.50;;;10.84;74.37
29215;BME280;16252;49.816;7.964;2022-11-15T07:37:11;99526.41;;;10.94;74.43
29215;BME280;16252;49.816;7.964;2022-11-15T07:39:37;99508.47;;;10.84;74.50
29215;BME280;16252;49.816;7.964;2022-11-15T07:42:03;99521.06;;;10.94;74.44
29215;BME280;16252;49.816;7.964;2022-11-15T07:44:46;99507.81;;;10.92;74.39
29215;BME280;16252;49.816;7.964;2022-11-15T07:47:12;99521.41;;;11.00;74.31
29215;BME280;16252;49.816;7.964;2022-11-15T07:49:37;99515.09;;;11.01;74.45
29215;BME280;16252;49.816;7.964;2022-11-15T07:52:03;99509.56;;;11.03;74.44
29215;BME280;16252;49.816;7.964;2022-11-15T07:54:28;99522.56;;;11.07;74.31
29215;BME280;16252;49.816;7.964;2022-11-15T07:56:53;99506.63;;;11.06;74.31
29215;BME280;16252;49.816;7.964;2022-11-15T07:59:18;99516.81;;;11.12;74.32
29215;BME280;16252;49.816;7.964;2022-11-15T08:01:44;99518.38;;;11.15;74.01
29215;BME280;16252;49.816;7.964;2022-11-15T08:04:10;99502.00;;;11.08;74.22
29215;BME280;16252;49.816;7.964;2022-11-15T08:06:36;99530.41;;;11.20;74.35
29215;BME280;16252;49.816;7.964;2022-11-15T08:09:01;99515.84;;;11.13;74.30
29215;BME280;16252;49.816;7.964;2022-11-15T08:11:27;99511.31;;;11.14;74.49
29215;BME280;16252;49.816;7.964;2022-11-15T08:13:52;99508.66;;;11.14;74.34
29215;BME280;16252;49.816;7.964;2022-11-15T08:16:17;99523.09;;;11.22;74.34
29215;BME280;16252;49.816;7.964;2022-11-15T08:18:42;99497.81;;;11.15;74.62
29215;BME280;16252;49.816;7.964;2022-11-15T08:21:09;99509.41;;;11.25;74.78
29215;BME280;16252;49.816;7.964;2022-11-15T08:23:34;99502.81;;;11.30;74.91
29215;BME280;16252;49.816;7.964;2022-11-15T08:26:03;99512.91;;;11.47;74.93
29215;BME280;16252;49.816;7.964;2022-11-15T08:28:30;99501.72;;;11.42;74.98
29215;BME280;16252;49.816;7.964;2022-11-15T08:30:55;99486.66;;;11.41;75.06
29215;BME280;16252;49.816;7.964;2022-11-15T08:33:21;99481.47;;;11.49;75.23
29215;BME280;16252;49.816;7.964;2022-11-15T08:35:46;99486.13;;;11.57;75.04
29215;BME280;16252;49.816;7.964;2022-11-15T08:38:12;99477.97;;;11.58;75.11
29215;BME280;16252;49.816;7.964;2022-11-15T08:40:37;99490.84;;;11.74;75.07
29215;BME280;16252;49.816;7.964;2022-11-15T08:43:03;99492.41;;;11.77;74.89
29215;BME280;16252;49.816;7.964;2022-11-15T08:45:29;99513.50;;;11.91;75.12
29215;BME280;16252;49.816;7.964;2022-11-15T08:47:55;99500.38;;;11.88;74.96
29215;BME280;16252;49.816;7.964;2022-11-15T08:50:21;99505.19;;;12.04;75.15
29215;BME280;16252;49.816;7.964;2022-11-15T08:52:47;99476.94;;;11.90;75.28
29215;BME280;16252;49.816;7.964;2022-11-15T08:55:15;99486.84;;;11.99;75.34
29215;BME280;16252;49.816;7.964;2022-11-15T08:57:40;99506.63;;;12.18;75.23
29215;BME280;16252;49.816;7.964;2022-11-15T09:00:06;99498.03;;;12.24;75.28
29215;BME280;16252;49.816;7.964;2022-11-15T09:02:31;99486.59;;;12.22;75.37
29215;BME280;16252;49.816;7.964;2022-11-15T09:04:56;99493.66;;;12.32;75.19
29215;BME280;16252;49.816;7.964;2022-11-15T09:07:22;99456.53;;;12.18;75.10
29215;BME280;16252;49.816;7.964;2022-11-15T09:09:47;99471.91;;;12.35;75.10
29215;BME280;16252;49.816;7.964;2022-11-15T09:12:12;99470.50;;;12.41;74.83
29215;BME280;16252;49.816;7.964;2022-11-15T09:14:38;99476.44;;;12.54;75.00
29215;BME280;16252;49.816;7.964;2022-11-15T09:17:03;99487.00;;;12.66;74.72
29215;BME280;16252;49.816;7.964;2022-11-15T09:19:29;99466.41;;;12.56;74.78
29215;BME280;16252;49.816;7.964;2022-11-15T09:21:54;99459.47;;;12.64;74.84
29215;BME280;16252;49.816;7.964;2022-11-15T09:24:19;99464.84;;;12.64;74.46
29215;BME280;16252;49.816;7.964;2022-11-15T09:26:45;99473.72;;;12.74;74.51
29215;BME280;16252;49.816;7.964;2022-11-15T09:29:11;99465.94;;;12.71;74.27
29215;BME280;16252;49.816;7.964;2022-11-15T09:31:36;99456.50;;;12.67;74.49
29215;BME280;16252;49.816;7.964;2022-11-15T09:34:02;99458.06;;;12.69;74.23
29215;BME280;16252;49.816;7.964;2022-11-15T09:36:27;99426.00;;;12.58;74.45
29215;BME280;16252;49.816;7.964;2022-11-15T09:38:52;99467.06;;;12.78;74.31
29215;BME280;16252;49.816;7.964;2022-11-15T09:41:29;99463.13;;;12.82;74.43
29215;BME280;16252;49.816;7.964;2022-11-15T09:44:22;99483.03;;;12.89;74.46
29215;BME280;16252;49.816;7.964;2022-11-15T09:49:31;99481.31;;;12.88;74.91
29215;BME280;16252;49.816;7.964;2022-11-15T09:51:57;99478.94;;;12.85;74.98
29215;BME280;16252;49.816;7.964;2022-11-15T09:54:30;99487.66;;;12.97;74.75
29215;BME280;16252;49.816;7.964;2022-11-15T09:57:04;99463.41;;;12.89;74.71
29215;BME280;16252;49.816;7.964;2022-11-15T09:59:41;99457.16;;;12.88;74.54
29215;BME280;16252;49.816;7.964;2022-11-15T10:02:30;99454.47;;;12.88;74.50
29215;BME280;16252;49.816;7.964;2022-11-15T10:04:59;99470.84;;;12.95;74.53
29215;BME280;16252;49.816;7.964;2022-11-15T10:07:31;99467.75;;;12.99;74.69
29215;BME280;16252;49.816;7.964;2022-11-15T10:10:13;99467.44;;;13.02;74.61
29215;BME280;16252;49.816;7.964;2022-11-15T10:12:45;99474.91;;;13.09;74.87
29215;BME280;16252;49.816;7.964;2022-11-15T10:15:16;99459.09;;;12.96;74.88
29215;BME280;16252;49.816;7.964;2022-11-15T10:20:40;99462.59;;;13.16;74.79
29215;BME280;16252;49.816;7.964;2022-11-15T10:23:13;99452.28;;;13.11;75.12
29215;BME280;16252;49.816;7.964;2022-11-15T10:25:38;99434.22;;;13.04;75.05
29215;BME280;16252;49.816;7.964;2022-11-15T10:28:22;99445.03;;;13.21;75.17
29215;BME280;16252;49.816;7.964;2022-11-15T10:30:53;99429.66;;;13.14;75.15
29215;BME280;16252;49.816;7.964;2022-11-15T10:33:35;99446.03;;;13.30;75.39
29215;BME280;16252;49.816;7.964;2022-11-15T10:41:21;99428.56;;;13.44;75.51
29215;BME280;16252;49.816;7.964;2022-11-15T10:46:31;99399.31;;;13.41;75.72
29215;BME280;16252;49.816;7.964;2022-11-15T10:49:13;99389.03;;;13.54;75.66
29215;BME280;16252;49.816;7.964;2022-11-15T10:51:43;99361.78;;;13.49;75.51
29215;BME280;16252;49.816;7.964;2022-11-15T10:54:12;99374.56;;;13.65;75.81
29215;BME280;16252;49.816;7.964;2022-11-15T10:56:39;99372.34;;;13.78;75.85
29215;BME280;16252;49.816;7.964;2022-11-15T10:59:12;99356.50;;;13.75;75.86
29215;BME280;16252;49.816;7.964;2022-11-15T11:01:46;99358.38;;;13.93;75.47
29215;BME280;16252;49.816;7.964;2022-11-15T11:04:12;99336.22;;;13.81;75.38
29215;BME280;16252;49.816;7.964;2022-11-15T11:06:55;99345.69;;;14.03;75.28
29215;BME280;16252;49.816;7.964;2022-11-15T11:09:40;99345.56;;;14.13;75.35
29215;BME280;16252;49.816;7.964;2022-11-15T11:12:10;99333.97;;;14.12;75.67
29215;BME280;16252;49.816;7.964;2022-11-15T11:14:38;99344.63;;;14.22;75.54
29215;BME280;16252;49.816;7.964;2022-11-15T11:17:23;99327.47;;;14.23;75.15
29215;BME280;16252;49.816;7.964;2022-11-15T11:22:54;99344.44;;;14.41;74.94
29215;BME280;16252;49.816;7.964;2022-11-15T11:36:24;99326.94;;;14.63;75.04
29215;BME280;16252;49.816;7.964;2022-11-15T11:46:48;99323.03;;;14.84;74.48
29215;BME280;16252;49.816;7.964;2022-11-15T11:49:19;99324.38;;;14.88;74.42
29215;BME280;16252;49.816;7.964;2022-11-15T11:51:54;99317.13;;;14.88;74.29
29215;BME280;16252;49.816;7.964;2022-11-15T11:54:28;99321.72;;;14.96;74.43
29215;BME280;16252;49.816;7.964;2022-11-15T11:56:59;99307.59;;;14.94;74.22
29215;BME280;16252;49.816;7.964;2022-11-15T11:59:42;99304.09;;;15.02;74.08
29215;BME280;16252;49.816;7.964;2022-11-15T12:02:34;99307.31;;;15.13;73.80
29215;BME280;16252;49.816;7.964;2022-11-15T12:05:10;99301.91;;;15.05;73.79
29215;BME280;16252;49.816;7.964;2022-11-15T12:07:38;99280.00;;;15.00;73.72
29215;BME280;16252;49.816;7.964;2022-11-15T12:12:49;99292.34;;;15.19;73.74
29215;BME280;16252;49.816;7.964;2022-11-15T12:15:19;99290.16;;;15.14;73.50
29215;BME280;16252;49.816;7.964;2022-11-15T12:17:47;99274.81;;;15.07;73.67
29215;BME280;16252;49.816;7.964;2022-11-15T12:20:20;99283.41;;;15.18;73.47
29215;BME280;16252;49.816;7.964;2022-11-15T12:22:58;99260.81;;;15.11;73.34
29215;BME280;16252;49.816;7.964;2022-11-15T12:25:30;99241.78;;;14.97;73.52
29215;BME280;16252;49.816;7.964;2022-11-15T12:31:02;99263.41;;;15.29;73.47
29215;BME280;16252;49.816;7.964;2022-11-15T12:33:43;99254.81;;;15.34;73.16
29215;BME280;16252;49.816;7.964;2022-11-15T12:36:12;99251.47;;;15.32;73.36
29215;BME280;16252;49.816;7.964;2022-11-15T12:38:59;99226.00;;;15.18;72.76
29215;BME280;16252;49.816;7.964;2022-11-15T12:41:29;99237.66;;;15.27;72.84
29215;BME280;16252;49.816;7.964;2022-11-15T12:43:55;99255.69;;;15.51;72.72
29215;BME280;16252;49.816;7.964;2022-11-15T13:02:43;99163.19;;;15.26;73.21
29215;BME280;16252;49.816;7.964;2022-11-15T13:15:31;99139.94;;;15.33;72.97
29215;BME280;16252;49.816;7.964;2022-11-15T13:17:57;99181.03;;;15.51;73.03
29215;BME280;16252;49.816;7.964;2022-11-15T13:20:27;99182.41;;;15.55;72.76
29215;BME280;16252;49.816;7.964;2022-11-15T13:23:22;99176.31;;;15.61;72.38
29215;BME280;16252;49.816;7.964;2022-11-15T13:26:12;99173.13;;;15.58;72.46
29215;BME280;16252;49.816;7.964;2022-11-15T13:28:43;99146.69;;;15.37;72.47
29215;BME280;16252;49.816;7.964;2022-11-15T13:33:39;99163.34;;;15.41;72.67
29215;BME280;16252;49.816;7.964;2022-11-15T13:36:23;99162.66;;;15.47;72.49
29215;BME280;16252;49.816;7.964;2022-11-15T13:39:03;99159.31;;;15.45;72.73
29215;BME280;16252;49.816;7.964;2022-11-15T13:41:34;99158.31;;;15.37;72.81
29215;BME280;16252;49.816;7.964;2022-11-15T13:44:01;99140.25;;;15.22;72.79
29215;BME280;16252;49.816;7.964;2022-11-15T13:46:36;99138.28;;;15.32;72.69
29215;BME280;16252;49.816;7.964;2022-11-15T13:49:09;99138.28;;;15.32;72.70
29215;BME280;16252;49.816;7.964;2022-11-15T13:54:27;99102.72;;;15.12;72.74
29215;BME280;16252;49.816;7.964;2022-11-15T13:56:59;99101.22;;;15.09;73.10
29215;BME280;16252;49.816;7.964;2022-11-15T13:59:29;99114.00;;;15.15;73.08
29215;BME280;16252;49.816;7.964;2022-11-15T14:01:59;99128.81;;;15.28;72.96
29215;BME280;16252;49.816;7.964;2022-11-15T14:04:27;99121.09;;;15.25;73.16
29215;BME280;16252;49.816;7.964;2022-11-15T14:06:58;99127.31;;;15.25;73.03
29215;BME280;16252;49.816;7.964;2022-11-15T14:09:33;99063.16;;;14.88;72.70
29215;BME280;16252;49.816;7.964;2022-11-15T14:12:01;99110.13;;;15.18;73.04
29215;BME280;16252;49.816;7.964;2022-11-15T14:14:28;99065.16;;;14.86;72.94
29215;BME280;16252;49.816;7.964;2022-11-15T14:16:57;99109.63;;;15.14;72.96
29215;BME280;16252;49.816;7.964;2022-11-15T14:22:14;99082.16;;;15.19;72.94
29215;BME280;16252;49.816;7.964;2022-11-15T14:24:41;99071.56;;;15.01;73.09
29215;BME280;16252;49.816;7.964;2022-11-15T14:27:23;99078.13;;;15.15;72.98
29215;BME280;16252;49.816;7.964;2022-11-15T14:29:49;99052.56;;;14.94;73.07
29215;BME280;16252;49.816;7.964;2022-11-15T14:32:22;99068.03;;;15.09;73.03
29215;BME280;16252;49.816;7.964;2022-11-15T14:34:59;99061.47;;;15.11;73.18
29215;BME280;16252;49.816;7.964;2022-11-15T14:39:52;99042.78;;;14.93;73.29
29215;BME280;16252;49.816;7.964;2022-11-15T14:42:19;99042.63;;;14.95;73.24
29215;BME280;16252;49.816;7.964;2022-11-15T14:44:45;99041.09;;;14.92;73.40